Aviation Digital Data Service (ADDS)

Output produced by METARs form (0907 UTC 23 July 2019)
found at http://www.aviationweather.gov/metar/data/
 
Forecast for: UKDD (DNIPROPETROVSK , UA)
Text: TAF UKDD 230505Z 2306/2406 34004G09MPS 9999 BKN030 TX28/2312Z TN16/2402Z
Forecast period: 0600 UTC 23 July 2019 to 0600 UTC 24 July 2019
Forecast type: FROM: standard forecast or significant change
Winds: from the NNW (340 degrees) at 9 MPH (8 knots; 4.1 m/s)
gusting to 20 MPH (17 knots; 8.7 m/s)
Visibility: 6 or more miles 10+ km)
Ceiling: 3000 feet AGL
Clouds: broken clouds at 3000 feet AGL
Weather: no significant weather forecast for this period
Text: TEMPO 2307/2320 VRB10G16MPS 1400 TSRA SQ SCT005 BKN015CB
Forecast period: 0700 to 2000 UTC 23 July 2019
Forecast type: TEMPORARY: The following changes expected for less than half the time period
Winds: variable direction winds at 22 MPH (19 knots; 9.8 m/s)
gusting to 36 MPH (31 knots; 15.9 m/s)
Visibility: 0.87 miles (1.40 km)
Ceiling: 1500 feet AGL
Clouds: scattered clouds at 500 feet AGL
broken clouds at 1500 feet AGL
Weather: TSRA SQ  (rain associated with thunderstorm(s), squal)